This is the latest recevied weather packets stored in our database for station/object BMCB-7. If no packets are shown the sender has not sent any weather packets the latest 10 day(s).
| Time | Temp. | Humidity | Pressure | Rain* | Wind** | Luminosity | Snow |
|---|---|---|---|---|---|---|---|
| 1778016055 | 8.89° C | 98% | 1007.4 hPa | 1.52 mm | - | 0 W/m² | - |
| 1778010651 | 9.44° C | 98% | 1007.3 hPa | 2.29 mm | - | 0 W/m² | - |
| 1778007052 | 10° C | 98% | 1006.9 hPa | 1.52 mm | - | 2 W/m² | - |
| 1778001049 | 10° C | 99% | 1007 hPa | 0.51 mm | - | 28 W/m² | - |
| 1778000451 | 10° C | 99% | 1007 hPa | 0.76 mm | - | 32 W/m² | - |
| 1777998655 | 10° C | 99% | 1007.1 hPa | 1.02 mm | - | 28 W/m² | - |
| 1777993846 | 10.56° C | 97% | 1007.2 hPa | 0.25 mm | - | 72 W/m² | - |
| 1777993251 | 10.56° C | 97% | 1007.2 hPa | 0 mm | - | 68 W/m² | - |
| 1777991448 | 11.11° C | 96% | 1007.3 hPa | 0 mm | - | 72 W/m² | - |
| 1777989050 | 11.67° C | 95% | 1007.3 hPa | 0 mm | - | 112 W/m² | - |
| 1777983647 | 12.78° C | 92% | 1007.7 hPa | 0 mm | - | 254 W/m² | - |
| 1777983047 | 12.78° C | 93% | 1007.7 hPa | 0 mm | - | 242 W/m² | - |
| 1777981249 | 12.78° C | 93% | 1007.8 hPa | 0 mm | - | 180 W/m² | - |
| 1777980049 | 12.78° C | 93% | 1007.9 hPa | 0 mm | - | 242 W/m² | - |
| 1777978850 | 13.33° C | 93% | 1008 hPa | 0 mm | - | 452 W/m² | - |
| 1777977647 | 12.78° C | 93% | 1008.2 hPa | 0 mm | - | 220 W/m² | - |
| 1777977051 | 12.78° C | 92% | 1008.2 hPa | 0 mm | - | 202 W/m² | - |
| 1777976446 | 12.78° C | 92% | 1008.3 hPa | 0 mm | - | 188 W/m² | - |
| 1777975852 | 12.78° C | 92% | 1008.4 hPa | 0 mm | - | 150 W/m² | - |
| 1777963820 | 11.11° C | 99% | 1009.2 hPa | 0 mm | - | 124 W/m² | - |
| 1777962618 | 11.11° C | 99% | 1009.2 hPa | 0 mm | - | 172 W/m² | - |
| 1777960818 | 10.56° C | 99% | 1009.3 hPa | 0 mm | - | 70 W/m² | - |
| 1777912850 | 12.78° C | 92% | 1011.7 hPa | 0 mm | - | 112 W/m² | - |
| 1777906221 | 13.89° C | 89% | 1012.1 hPa | 0.51 mm | - | 290 W/m² | - |
| 1777900848 | 13.33° C | 93% | 1012.5 hPa | 0.76 mm | - | 192 W/m² | - |
* Rain latest hour (hover to see other rain measurements)
** Current wind speed in m/s (hover to see current wind gust speed)